Time;durP1;ratioP1;P1;durP2;ratioP2;P2;SDS_P1;SDS_P2;PMS_P1;PMS_P2;Temp;Humidity;BMP_temperature;BMP_pressure;BME280_temperature;BME280_humidity;BME280_pressure;Samples;Min_cycle;Max_cycle;Signal;HPM_P1;HPM_P2
2023/12/02 00:00:09;;;;;;;7.07;3.92;;;4.80;72.80;;;-0.42;100.00;93832.75;4959532;28;20540;-52
2023/12/02 00:02:34;;;;;;;12.00;4.15;;;4.80;72.00;;;-0.46;100.00;93824.59;4952706;28;20042;-50
2023/12/02 00:05:00;;;;;;;5.35;4.13;;;4.80;72.00;;;-0.49;100.00;93825.09;4956332;28;20030;-49
2023/12/02 00:07:27;;;;;;;13.75;4.47;;;4.80;72.00;;;-0.47;100.00;93826.44;4950779;28;20105;-50
2023/12/02 00:09:53;;;;;;;6.30;3.80;;;4.80;72.00;;;-0.45;100.00;93814.94;4957124;28;20079;-50
2023/12/02 00:12:19;;;;;;;4.63;3.63;;;4.80;72.10;;;-0.52;100.00;93813.28;4956795;28;20023;-51
2023/12/02 00:14:44;;;;;;;5.40;3.60;;;4.80;72.10;;;-0.52;100.00;93818.50;4954396;28;20406;-50
2023/12/02 00:17:10;;;;;;;7.53;4.07;;;4.80;72.80;;;-0.48;100.00;93822.22;4952511;28;20026;-50
2023/12/02 00:19:36;;;;;;;5.10;3.70;;;4.80;72.10;;;-0.51;100.00;93822.69;4955657;28;20027;-50
2023/12/02 00:22:04;;;;;;;5.03;3.28;;;4.80;72.10;;;-0.48;100.00;93816.19;4949403;28;20431;-53
2023/12/02 00:24:30;;;;;;;5.15;3.60;;;4.70;72.10;;;-0.55;100.00;93810.34;4955067;28;20030;-49
2023/12/02 00:26:56;;;;;;;6.07;3.95;;;4.80;72.10;;;-0.59;100.00;93809.25;4966197;28;20025;-53
2023/12/02 00:29:21;;;;;;;7.18;3.83;;;4.70;72.00;;;-0.57;100.00;93818.41;4952843;28;20080;-54
2023/12/02 00:31:47;;;;;;;8.20;3.42;;;4.70;72.10;;;-0.54;100.00;93819.75;4966272;28;20488;-49
2023/12/02 00:34:13;;;;;;;5.82;3.92;;;4.70;72.00;;;-0.55;100.00;93824.22;4949772;28;20119;-52
2023/12/02 00:36:39;;;;;;;5.80;3.60;;;4.70;72.10;;;-0.56;100.00;93817.41;4958998;28;20064;-49
2023/12/02 00:39:05;;;;;;;5.10;3.88;;;4.70;72.10;;;-0.57;100.00;93805.34;4961398;28;20023;-54
2023/12/02 00:41:30;;;;;;;6.43;4.07;;;4.70;72.10;;;-0.59;100.00;93807.41;4952721;28;20054;-50
2023/12/02 00:43:56;;;;;;;5.68;3.90;;;4.70;72.10;;;-0.64;100.00;93817.78;4963758;28;20027;-51
2023/12/02 00:46:22;;;;;;;6.70;4.10;;;4.70;72.10;;;-0.63;100.00;93821.19;4963383;28;20968;-52
2023/12/02 00:48:52;;;;;;;7.05;4.22;;;4.70;72.10;;;-0.60;100.00;93837.19;4961378;28;20035;-52
2023/12/02 00:51:17;;;;;;;14.48;4.28;;;4.70;72.10;;;-0.53;100.00;93839.69;4958271;28;20022;-49
2023/12/02 00:53:44;;;;;;;6.40;4.50;;;4.60;72.10;;;-0.55;100.00;93845.13;4953210;28;20034;-53
2023/12/02 00:56:10;;;;;;;6.72;5.20;;;4.70;72.20;;;-0.53;100.00;93847.53;4974865;23;20054;-58
2023/12/02 00:58:36;;;;;;;6.75;4.38;;;4.70;72.20;;;-0.50;100.00;93847.06;4956733;28;20045;-57
2023/12/02 01:01:02;;;;;;;10.40;5.22;;;4.70;72.20;;;-0.52;100.00;93842.03;4965982;28;20105;-57
2023/12/02 01:03:28;;;;;;;7.28;4.72;;;4.70;72.20;;;-0.48;100.00;93853.59;4951574;28;20567;-56
2023/12/02 01:05:54;;;;;;;8.10;5.00;;;4.70;72.10;;;-0.56;100.00;93856.63;4956735;28;20038;-60
2023/12/02 01:08:20;;;;;;;7.18;4.78;;;4.70;72.10;;;-0.59;100.00;93856.31;4949264;28;20154;-60
2023/12/02 01:10:45;;;;;;;9.95;5.15;;;4.70;72.10;;;-0.60;100.00;93852.88;4963127;28;20084;-59
2023/12/02 01:13:11;;;;;;;6.88;4.47;;;4.70;72.00;;;-0.62;100.00;93849.72;4963294;28;20030;-58
2023/12/02 01:15:37;;;;;;;10.50;5.18;;;4.70;72.40;;;-0.64;100.00;93851.78;4955136;28;20019;-60
2023/12/02 01:18:03;;;;;;;8.75;4.75;;;4.70;72.00;;;-0.63;100.00;93868.25;4960343;28;20043;-58
2023/12/02 01:20:29;;;;;;;7.10;5.32;;;4.70;72.00;;;-0.65;100.00;93858.06;4953105;28;20146;-60
2023/12/02 01:22:54;;;;;;;7.50;5.05;;;4.70;72.00;;;-0.65;100.00;93855.44;4954116;28;20445;-56
2023/12/02 01:25:20;;;;;;;7.30;5.20;;;4.70;72.00;;;-0.61;100.00;93853.13;4966041;28;20026;-59
2023/12/02 01:27:46;;;;;;;7.32;5.15;;;4.60;72.00;;;-0.60;100.00;93850.28;4958699;28;20030;-60
2023/12/02 01:30:12;;;;;;;7.20;5.22;;;4.70;72.10;;;-0.62;100.00;93854.97;4960135;28;20110;-60
2023/12/02 01:32:38;;;;;;;8.60;4.95;;;4.70;72.10;;;-0.63;100.00;93852.56;4957470;28;20057;-55
2023/12/02 01:35:05;;;;;;;7.30;4.68;;;4.70;72.10;;;-0.64;100.00;93857.00;4956100;28;20034;-59
2023/12/02 01:37:31;;;;;;;7.07;4.45;;;4.70;72.10;;;-0.60;100.00;93857.31;4959750;28;20022;-59
2023/12/02 01:39:56;;;;;;;7.50;4.97;;;4.70;72.20;;;-0.58;100.00;93876.19;4965423;28;20036;-60
2023/12/02 01:42:22;;;;;;;9.32;5.63;;;4.70;72.20;;;-0.58;100.00;93884.06;4949909;28;20034;-59
2023/12/02 01:44:48;;;;;;;9.65;6.43;;;4.70;72.20;;;-0.54;100.00;93885.94;4965088;28;20022;-59
2023/12/02 01:47:15;;;;;;;10.85;5.38;;;4.70;72.20;;;-0.56;100.00;93888.03;4948624;28;20101;-56
2023/12/02 01:49:44;;;;;;;8.43;5.72;;;4.70;72.20;;;-0.56;100.00;93888.03;4963055;28;20025;-58
2023/12/02 01:52:11;;;;;;;12.60;6.18;;;4.70;72.10;;;-0.58;100.00;93887.44;4952854;28;20031;-59
2023/12/02 01:54:37;;;;;;;9.88;6.07;;;4.70;72.10;;;-0.57;100.00;93883.00;4954727;28;20090;-55
2023/12/02 01:57:03;;;;;;;8.57;6.30;;;4.70;72.10;;;-0.57;100.00;93883.00;4956746;28;20527;-57
2023/12/02 01:59:32;;;;;;;9.70;5.90;;;4.70;72.10;;;-0.58;100.00;93878.81;4949225;28;20082;-55
2023/12/02 02:01:58;;;;;;;9.07;6.07;;;4.70;72.10;;;-0.59;100.00;93882.47;4952464;28;20110;-60
2023/12/02 02:04:24;;;;;;;10.30;6.15;;;4.70;72.10;;;-0.61;100.00;93881.91;4960115;28;20105;-55
2023/12/02 02:06:50;;;;;;;8.15;5.70;;;4.70;72.10;;;-0.60;100.00;93884.28;4961188;28;20026;-57
2023/12/02 02:09:16;;;;;;;8.30;5.70;;;4.70;72.10;;;-0.58;100.00;93900.53;4965717;28;20030;-59
2023/12/02 02:11:42;;;;;;;8.05;5.45;;;4.70;72.10;;;-0.57;100.00;93894.25;4949948;28;20500;-59
2023/12/02 02:14:08;;;;;;;9.15;6.20;;;4.70;72.10;;;-0.63;100.00;93897.81;4958819;28;20034;-54
2023/12/02 02:16:33;;;;;;;7.70;5.35;;;4.70;72.10;;;-0.63;100.00;93891.81;4948050;28;20014;-57
2023/12/02 02:18:59;;;;;;;8.48;6.30;;;4.70;72.10;;;-0.63;100.00;93889.19;4949561;28;20041;-56
2023/12/02 02:21:26;;;;;;;9.55;5.88;;;4.70;72.10;;;-0.64;100.00;93887.59;4951922;28;20046;-58
2023/12/02 02:23:52;;;;;;;11.35;5.65;;;4.70;72.00;;;-0.64;100.00;93888.41;4951414;28;20034;-54
2023/12/02 02:26:18;;;;;;;8.45;5.30;;;4.70;72.00;;;-0.63;100.00;93891.81;4945394;28;20449;-59
2023/12/02 02:28:44;;;;;;;10.98;6.18;;;4.70;72.00;;;-0.65;100.00;93891.25;4963374;28;20128;-57
2023/12/02 02:31:10;;;;;;;9.05;6.18;;;4.60;72.00;;;-0.68;100.00;93891.72;4941924;28;20031;-55
2023/12/02 02:33:36;;;;;;;9.43;5.75;;;4.60;72.00;;;-0.65;100.00;93888.66;4957507;28;20089;-56
2023/12/02 02:36:02;;;;;;;9.73;5.80;;;4.60;72.00;;;-0.67;100.00;93888.06;4956388;28;20093;-59
2023/12/02 02:38:28;;;;;;;6.78;4.75;;;4.60;72.00;;;-0.68;100.00;93892.53;4951009;28;20031;-58
2023/12/02 02:40:53;;;;;;;8.30;5.65;;;4.60;72.00;;;-0.67;100.00;93890.69;4952515;28;20019;-55
2023/12/02 02:43:19;;;;;;;10.02;5.57;;;4.60;72.00;;;-0.65;100.00;93901.72;4947936;28;20051;-56
2023/12/02 02:45:45;;;;;;;8.05;5.53;;;4.60;72.00;;;-0.66;100.00;93905.34;4956378;28;20029;-57
2023/12/02 02:48:12;;;;;;;7.10;5.07;;;4.60;72.00;;;-0.68;100.00;93904.81;4957144;28;20092;-55
2023/12/02 02:50:38;;;;;;;7.28;5.13;;;4.60;72.10;;;-0.62;100.00;93896.03;4950072;28;20047;-56
2023/12/02 02:53:03;;;;;;;24.13;5.63;;;4.60;72.10;;;-0.58;100.00;93897.13;4955882;28;20167;-56
2023/12/02 02:55:29;;;;;;;5.82;4.70;;;4.60;72.10;;;-0.56;100.00;93884.63;4956291;28;20062;-57
2023/12/02 02:57:55;;;;;;;5.55;4.07;;;4.70;72.20;;;-0.55;100.00;93891.44;4962951;28;20477;-58
2023/12/02 03:00:23;;;;;;;6.45;4.20;;;4.70;72.20;;;-0.59;100.00;93896.34;4946820;28;20022;-56
2023/12/02 03:02:48;;;;;;;10.55;4.60;;;4.70;72.10;;;-0.58;100.00;93910.19;4953860;28;20472;-58
2023/12/02 03:05:14;;;;;;;5.57;3.72;;;4.70;72.10;;;-0.59;100.00;93922.50;4945520;28;20039;-56
2023/12/02 03:07:40;;;;;;;6.35;4.40;;;4.70;72.00;;;-0.59;100.00;93932.94;4960914;28;20014;-55
2023/12/02 03:10:08;;;;;;;5.15;3.90;;;4.80;72.00;;;-0.57;100.00;93933.50;4940078;28;20018;-55
2023/12/02 03:12:33;;;;;;;4.70;3.45;;;4.70;71.90;;;-0.57;100.00;93941.34;4953326;28;20018;-57
2023/12/02 03:14:59;;;;;;;5.65;3.63;;;4.80;72.00;;;-0.52;100.00;93945.88;4957349;28;20101;-59
2023/12/02 03:17:25;;;;;;;5.32;3.60;;;4.70;71.90;;;-0.51;100.00;93948.25;4949078;28;20046;-57
2023/12/02 03:19:51;;;;;;;5.32;3.95;;;4.80;72.00;;;-0.49;100.00;93940.19;4959353;28;20028;-54
2023/12/02 03:22:17;;;;;;;4.97;3.53;;;4.80;72.00;;;-0.49;100.00;93935.75;4943843;28;20023;-54
2023/12/02 03:24:43;;;;;;;5.95;3.65;;;4.80;72.00;;;-0.51;100.00;93937.78;4951522;28;20026;-56
2023/12/02 03:27:09;;;;;;;9.52;3.90;;;4.80;72.70;;;-0.58;100.00;93941.59;4952928;28;20026;-54
2023/12/02 03:29:35;;;;;;;5.63;3.67;;;4.80;71.80;;;-0.58;100.00;93954.66;4956619;28;20057;-57
2023/12/02 03:32:01;;;;;;;4.07;3.22;;;4.80;71.80;;;-0.63;100.00;93950.13;4950602;28;20046;-56
2023/12/02 03:34:26;;;;;;;5.50;3.60;;;4.80;71.80;;;-0.57;100.00;93951.81;4946361;28;20041;-58
2023/12/02 03:36:52;;;;;;;5.25;3.15;;;4.80;71.80;;;-0.58;100.00;93938.97;4942723;28;20543;-59
2023/12/02 03:39:18;;;;;;;4.63;3.15;;;4.70;71.80;;;-0.56;100.00;93937.72;4944139;28;20027;-56
2023/12/02 03:41:44;;;;;;;5.95;3.70;;;4.70;71.70;;;-0.63;100.00;93941.50;4964612;28;20014;-56
2023/12/02 03:44:10;;;;;;;4.30;3.25;;;4.70;71.70;;;-0.65;100.00;93943.56;4943360;28;20043;-56
2023/12/02 03:46:37;;;;;;;8.15;3.55;;;4.70;71.70;;;-0.64;100.00;93953.78;4956707;28;20026;-56
2023/12/02 03:49:04;;;;;;;5.63;3.67;;;4.70;71.70;;;-0.63;100.00;93950.13;4940067;28;20027;-58
2023/12/02 03:51:30;;;;;;;11.40;3.88;;;4.70;71.80;;;-0.64;100.00;93966.06;4955377;28;20529;-54
2023/12/02 03:53:56;;;;;;;4.88;3.33;;;4.60;71.80;;;-0.61;100.00;93970.81;4954662;28;20097;-55
2023/12/02 03:56:23;;;;;;;4.60;3.13;;;4.70;71.90;;;-0.60;100.00;93973.19;4947247;28;20069;-56
2023/12/02 03:58:50;;;;;;;6.00;3.15;;;4.70;71.90;;;-0.57;100.00;93980.56;4951055;28;20080;-57
2023/12/02 04:01:17;;;;;;;4.72;3.38;;;4.70;72.00;;;-0.55;100.00;93986.38;4942810;28;20038;-54
2023/12/02 04:03:46;;;;;;;6.18;3.42;;;4.70;72.00;;;-0.52;100.00;93992.97;4952660;28;20099;-58
2023/12/02 04:06:11;;;;;;;3.28;2.63;;;4.70;71.90;;;-0.48;100.00;94001.94;4956845;28;20165;-59
2023/12/02 04:08:37;;;;;;;4.97;2.47;;;4.80;72.00;;;-0.53;100.00;94000.03;4959905;28;20117;-56
2023/12/02 04:11:03;;;;;;;4.55;2.88;;;4.80;72.00;;;-0.52;100.00;94006.84;4947729;28;20122;-58
2023/12/02 04:13:29;;;;;;;4.28;2.80;;;4.80;71.90;;;-0.52;100.00;94008.66;4963829;28;20069;-60
2023/12/02 04:15:55;;;;;;;3.97;2.85;;;4.80;71.80;;;-0.49;100.00;94016.03;4962488;28;20030;-58
2023/12/02 04:18:21;;;;;;;3.85;2.58;;;4.90;71.90;;;-0.47;100.00;94021.81;4959045;28;20033;-60
2023/12/02 04:20:47;;;;;;;3.42;2.60;;;4.90;72.60;;;-0.45;100.00;94025.00;4959550;28;20027;-60
2023/12/02 04:23:14;;;;;;;3.17;2.53;;;4.90;71.80;;;-0.42;100.00;94023.75;4945481;28;20031;-60
2023/12/02 04:25:40;;;;;;;4.28;3.00;;;4.90;71.80;;;-0.43;100.00;94025.56;4959880;28;20034;-58
2023/12/02 04:28:07;;;;;;;11.35;2.85;;;4.90;71.70;;;-0.42;100.00;94018.50;4957126;28;20026;-53
2023/12/02 04:30:34;;;;;;;5.45;2.78;;;4.90;71.70;;;-0.48;100.00;94020.25;4956873;28;20114;-60
2023/12/02 04:33:00;;;;;;;3.55;2.55;;;4.90;71.60;;;-0.45;100.00;94013.75;4961118;28;20033;-59
2023/12/02 04:35:26;;;;;;;3.42;2.63;;;4.90;71.60;;;-0.45;100.00;94017.16;4957040;28;20386;-56
2023/12/02 04:37:52;;;;;;;4.03;2.90;;;4.90;71.50;;;-0.43;100.00;94014.31;4952366;28;20026;-60
2023/12/02 04:40:18;;;;;;;8.75;2.85;;;4.90;71.60;;;-0.44;100.00;94016.13;4955457;28;20061;-60
2023/12/02 04:42:43;;;;;;;3.75;2.88;;;4.90;71.60;;;-0.45;100.00;94018.97;4964622;28;20076;-60
2023/12/02 04:45:09;;;;;;;3.30;2.40;;;4.90;71.60;;;-0.43;100.00;94019.56;4956476;28;20046;-58
2023/12/02 04:47:36;;;;;;;3.70;2.60;;;4.90;71.60;;;-0.41;100.00;94025.31;4959135;28;20058;-60
2023/12/02 04:50:05;;;;;;;3.08;2.33;;;4.90;71.60;;;-0.44;100.00;94025.78;4952691;28;20482;-60
2023/12/02 04:52:32;;;;;;;2.97;2.30;;;4.90;71.60;;;-0.47;100.00;94027.88;4953488;28;20106;-60
2023/12/02 04:54:58;;;;;;;9.23;2.47;;;4.90;71.50;;;-0.45;100.00;94037.28;4959564;28;20039;-60
2023/12/02 04:57:25;;;;;;;3.03;2.35;;;5.00;72.30;;;-0.42;100.00;94036.81;4961917;28;20046;-57
2023/12/02 04:59:51;;;;;;;2.47;2.05;;;4.90;71.50;;;-0.43;100.00;94049.13;4959860;28;20487;-59
2023/12/02 05:02:20;;;;;;;5.60;2.08;;;5.00;71.50;;;-0.40;100.00;94047.88;4949439;28;20042;-58
2023/12/02 05:04:47;;;;;;;2.67;1.88;;;5.00;71.50;;;-0.36;100.00;94054.22;4954247;28;20066;-56
2023/12/02 05:07:14;;;;;;;2.13;1.75;;;5.00;71.40;;;-0.48;100.00;94046.41;4961964;28;20030;-59
2023/12/02 05:09:39;;;;;;;1.80;1.50;;;5.00;71.40;;;-0.51;100.00;94046.88;4959890;28;20057;-58
2023/12/02 05:12:07;;;;;;;2.05;1.65;;;5.00;71.30;;;-0.49;100.00;94053.47;4963206;28;20061;-58
2023/12/02 05:14:34;;;;;;;2.15;1.70;;;5.00;71.30;;;-0.45;100.00;94055.59;4959336;28;20035;-58
2023/12/02 05:17:00;;;;;;;3.80;1.63;;;5.00;71.30;;;-0.45;100.00;94060.84;4955288;28;20018;-57
2023/12/02 05:19:26;;;;;;;3.50;1.67;;;5.00;71.30;;;-0.48;100.00;94062.88;4962077;28;20050;-59
2023/12/02 05:21:52;;;;;;;3.17;1.95;;;5.00;71.30;;;-0.53;100.00;94062.81;4964933;28;20053;-57
2023/12/02 05:24:20;;;;;;;1.80;1.60;;;5.00;71.30;;;-0.50;100.00;94053.72;4956837;28;20045;-60
2023/12/02 05:26:46;;;;;;;2.25;1.63;;;5.00;71.30;;;-0.47;100.00;94053.22;4959026;28;20025;-60
2023/12/02 05:29:12;;;;;;;2.22;1.80;;;4.90;71.20;;;-0.45;100.00;94053.78;4965010;28;20023;-59
2023/12/02 05:31:39;;;;;;;2.15;1.70;;;5.00;71.30;;;-0.47;100.00;94051.41;4964731;28;20037;-59
2023/12/02 05:34:05;;;;;;;1.73;1.55;;;5.00;71.30;;;-0.58;100.00;94051.44;4965029;28;20055;-60
2023/12/02 05:36:31;;;;;;;2.88;1.85;;;4.90;71.20;;;-0.62;100.00;94052.94;4955184;28;20447;-59
2023/12/02 05:38:57;;;;;;;2.88;2.03;;;4.90;71.20;;;-0.61;100.00;94055.31;4961406;28;20022;-58
2023/12/02 05:41:23;;;;;;;3.08;1.60;;;4.90;71.10;;;-0.59;100.00;94057.72;4964381;28;20018;-57
2023/12/02 05:43:49;;;;;;;1.90;1.63;;;4.90;71.20;;;-0.58;100.00;94065.31;4962654;28;20035;-55
2023/12/02 05:46:17;;;;;;;1.88;1.67;;;4.80;71.20;;;-0.63;100.00;94067.81;4962979;28;20388;-55
2023/12/02 05:48:46;;;;;;;2.08;1.60;;;4.80;71.20;;;-0.66;100.00;94068.28;4959311;28;20506;-57
2023/12/02 05:51:13;;;;;;;2.97;2.10;;;4.80;71.20;;;-0.65;100.00;94071.72;4955816;28;20022;-58
2023/12/02 05:53:40;;;;;;;2.42;2.00;;;4.80;71.20;;;-0.68;100.00;94083.44;4955375;28;20037;-55
2023/12/02 05:56:10;;;;;;;2.67;1.73;;;4.80;71.20;;;-0.71;100.00;94092.53;4967050;28;20038;-59
2023/12/02 05:58:36;;;;;;;2.33;1.80;;;4.80;71.20;;;-0.68;100.00;94103.56;4958979;28;20029;-56
2023/12/02 06:01:02;;;;;;;2.28;1.60;;;4.80;71.20;;;-0.73;100.00;94106.84;4966152;28;20481;-57
2023/12/02 06:03:28;;;;;;;3.65;2.00;;;4.80;71.20;;;-0.67;100.00;94113.78;4950644;28;20034;-58
2023/12/02 06:05:53;;;;;;;2.95;2.28;;;4.80;71.20;;;-0.68;100.00;94129.72;4960034;28;21420;-59
2023/12/02 06:08:19;;;;;;;2.80;2.05;;;4.80;71.20;;;-0.66;100.00;94127.63;4949920;28;20526;-57
2023/12/02 06:10:45;;;;;;;2.42;2.03;;;4.80;71.20;;;-0.67;100.00;94129.47;4949319;28;20486;-59
2023/12/02 06:13:11;;;;;;;4.00;2.30;;;4.80;71.20;;;-0.65;100.00;94126.63;4945599;28;20027;-53
2023/12/02 06:15:37;;;;;;;2.65;2.15;;;4.80;71.20;;;-0.66;100.00;94128.44;4956739;28;20035;-57
2023/12/02 06:18:03;;;;;;;3.25;2.35;;;4.80;71.30;;;-0.62;100.00;94137.44;4953565;28;20057;-56
2023/12/02 06:20:29;;;;;;;5.43;2.40;;;4.80;71.30;;;-0.60;100.00;94137.19;4948569;28;20054;-57
2023/12/02 06:22:55;;;;;;;2.45;2.03;;;4.80;71.30;;;-0.59;100.00;94142.19;4952791;28;20018;-59
2023/12/02 06:25:21;;;;;;;5.28;2.63;;;4.80;71.30;;;-0.64;100.00;94143.91;4965263;28;20543;-59
2023/12/02 06:27:46;;;;;;;4.20;2.65;;;4.80;71.30;;;-0.65;100.00;94147.56;4962763;28;20045;-57
2023/12/02 06:30:17;;;;;;;3.38;2.47;;;4.80;71.20;;;-0.67;100.00;94149.59;4911541;28;22743;-60
2023/12/02 06:32:43;;;;;;;3.67;2.47;;;4.80;71.20;;;-0.68;100.00;94158.47;4959388;28;20438;-57
2023/12/02 06:35:10;;;;;;;3.88;2.47;;;4.80;71.20;;;-0.66;100.00;94159.03;4964108;28;20141;-57
2023/12/02 06:37:36;;;;;;;3.60;2.63;;;4.80;71.20;;;-0.75;100.00;94161.22;4951727;28;20041;-60
2023/12/02 06:40:03;;;;;;;4.03;2.63;;;4.80;71.10;;;-0.76;100.00;94160.41;4960395;28;20469;-60
2023/12/02 06:42:29;;;;;;;4.53;2.83;;;4.70;71.00;;;-0.75;100.00;94167.22;4963830;28;20031;-59
2023/12/02 06:44:55;;;;;;;5.25;3.45;;;4.70;71.10;;;-0.78;100.00;94169.50;4963955;28;20034;-59
2023/12/02 06:47:21;;;;;;;4.63;3.08;;;4.70;71.10;;;-0.77;100.00;94174.50;4958020;28;20033;-57
2023/12/02 06:49:46;;;;;;;5.47;3.10;;;4.80;71.20;;;-0.81;100.00;94181.22;4955823;28;20358;-55
2023/12/02 06:52:12;;;;;;;5.53;3.40;;;4.70;71.10;;;-0.79;100.00;94176.53;4950479;28;20063;-56
2023/12/02 06:54:38;;;;;;;4.75;3.05;;;4.70;71.00;;;-0.85;100.00;94180.06;4968047;28;20127;-57
2023/12/02 06:57:06;;;;;;;4.95;3.35;;;4.70;71.80;;;-0.88;100.00;94185.75;4984155;23;20061;-51
2023/12/02 06:59:32;;;;;;;5.22;3.25;;;4.70;71.00;;;-0.85;100.00;94194.97;4948113;28;20507;-49
2023/12/02 07:01:58;;;;;;;6.72;3.72;;;4.70;71.00;;;-0.84;100.00;94191.34;4950956;28;20034;-50
2023/12/02 07:04:24;;;;;;;6.20;3.40;;;4.70;71.00;;;-0.86;100.00;94193.38;4953068;28;20065;-53
2023/12/02 07:06:50;;;;;;;7.18;3.88;;;4.70;70.90;;;-0.85;100.00;94197.56;4940804;28;20481;-54
2023/12/02 07:09:16;;;;;;;5.82;4.15;;;4.70;71.00;;;-0.84;100.00;94201.81;4943655;28;20031;-51
2023/12/02 07:11:42;;;;;;;10.35;5.10;;;4.70;71.00;;;-0.82;100.00;94212.81;4931439;28;20027;-50
2023/12/02 07:14:08;;;;;;;6.32;4.30;;;4.70;71.00;;;-0.81;100.00;94203.97;4938761;28;20037;-50
2023/12/02 07:16:34;;;;;;;7.72;4.55;;;4.70;71.00;;;-0.78;100.00;94209.53;4942681;28;20023;-51
2023/12/02 07:19:00;;;;;;;6.60;4.03;;;4.70;71.00;;;-0.74;100.00;94204.63;4927832;29;20028;-51
2023/12/02 07:21:25;;;;;;;7.05;4.30;;;4.80;71.00;;;-0.73;100.00;94212.25;4934284;28;20019;-52
2023/12/02 07:23:51;;;;;;;7.28;4.25;;;4.80;71.00;;;-0.72;100.00;94210.44;4935474;28;20478;-51
2023/12/02 07:26:17;;;;;;;9.02;5.07;;;4.90;71.00;;;-0.75;100.00;94223.97;4935199;28;20026;-55
2023/12/02 07:28:43;;;;;;;8.77;4.75;;;4.90;70.90;;;-0.69;100.00;94225.66;4933104;28;20078;-54
2023/12/02 07:31:17;;;;;;;9.88;4.60;;;5.00;70.80;;;-0.73;100.00;94230.53;4933177;28;20087;-52
2023/12/02 07:33:44;;;;;;;7.07;4.45;;;5.00;70.70;;;-0.77;100.00;94236.47;4931904;28;20090;-52
2023/12/02 07:36:11;;;;;;;9.30;5.65;;;5.00;70.60;;;-0.74;100.00;94242.03;4932318;29;20023;-50
2023/12/02 07:38:38;;;;;;;23.33;6.25;;;5.00;70.50;;;-0.73;100.00;94248.06;4937095;28;20031;-51
2023/12/02 07:41:05;;;;;;;9.98;5.18;;;5.00;70.40;;;-0.72;100.00;94258.31;4932731;28;20026;-54
2023/12/02 07:43:30;;;;;;;11.07;6.45;;;5.00;70.40;;;-0.72;100.00;94268.78;4935430;28;20026;-50
2023/12/02 07:45:56;;;;;;;18.33;6.55;;;5.00;70.30;;;-0.73;100.00;94271.59;4935290;28;20035;-50
2023/12/02 07:48:22;;;;;;;11.00;6.22;;;5.10;70.40;;;-0.72;100.00;94274.00;4938049;28;20034;-51
2023/12/02 07:50:48;;;;;;;10.68;6.22;;;5.10;70.30;;;-0.70;100.00;94273.75;4939594;29;20515;-53
2023/12/02 07:53:14;;;;;;;12.32;6.25;;;5.10;70.10;;;-0.64;100.00;94285.16;4928806;29;20113;-57
2023/12/02 07:55:39;;;;;;;13.23;5.97;;;5.10;70.10;;;-0.62;100.00;94293.56;4935334;29;20161;-53
2023/12/02 07:58:05;;;;;;;10.10;6.35;;;5.10;70.10;;;-0.57;100.00;94299.69;4935914;28;20023;-50
2023/12/02 08:00:31;;;;;;;10.13;6.00;;;5.20;70.10;;;-0.57;100.00;94304.94;4942505;29;20174;-54
2023/12/02 08:02:57;;;;;;;11.07;6.25;;;5.30;70.10;;;-0.54;100.00;94303.69;4947964;28;20049;-51
2023/12/02 08:05:23;;;;;;;11.50;6.50;;;5.30;70.00;;;-0.54;100.00;94309.69;4943506;28;20042;-50
2023/12/02 08:07:51;;;;;;;12.65;6.80;;;5.40;69.90;;;-0.52;100.00;94309.50;4960588;28;20026;-52
2023/12/02 08:10:17;;;;;;;11.40;6.40;;;5.50;69.80;;;-0.47;100.00;94318.25;4943318;28;20054;-51
2023/12/02 08:12:43;;;;;;;9.82;5.93;;;5.50;69.60;;;-0.39;100.00;94313.72;4942323;29;20030;-51
2023/12/02 08:15:09;;;;;;;9.60;5.78;;;5.60;69.50;;;-0.38;100.00;94321.31;4942882;28;20464;-53
2023/12/02 08:17:36;;;;;;;11.68;6.25;;;5.70;69.40;;;-0.34;100.00;94326.91;4940772;28;20382;-50
2023/12/02 08:20:05;;;;;;;9.45;6.10;;;5.70;69.20;;;-0.32;100.00;94323.03;4944658;28;20057;-50
2023/12/02 08:22:32;;;;;;;10.43;6.20;;;5.80;69.10;;;-0.21;100.00;94331.94;4935811;28;20189;-51
2023/12/02 08:24:58;;;;;;;9.68;5.97;;;5.90;68.90;;;-0.29;100.00;94329.63;4943657;28;20031;-50
2023/12/02 08:27:24;;;;;;;10.88;6.13;;;6.00;68.80;;;-0.24;100.00;94342.84;4935383;28;20027;-50
2023/12/02 08:29:51;;;;;;;11.05;6.40;;;6.00;68.60;;;-0.18;100.00;94352.41;4943479;28;20498;-50
2023/12/02 08:32:17;;;;;;;15.43;6.05;;;6.10;68.40;;;-0.10;100.00;94352.06;4941533;28;20035;-51
2023/12/02 08:34:42;;;;;;;10.05;6.18;;;6.20;68.30;;;-0.07;100.00;94353.41;4941668;29;20037;-51
2023/12/02 08:37:08;;;;;;;9.88;6.18;;;6.20;68.20;;;-0.02;100.00;94362.19;4940016;28;20153;-52
2023/12/02 08:39:35;;;;;;;7.68;5.13;;;6.30;68.20;;;0.01;100.00;94365.38;4940540;29;20030;-55
2023/12/02 08:42:01;;;;;;;9.57;5.90;;;6.40;68.10;;;0.04;100.00;94367.56;4937640;29;20027;-52
2023/12/02 08:44:27;;;;;;;8.13;5.20;;;6.40;67.90;;;0.08;100.00;94372.09;4944090;29;20508;-49
2023/12/02 08:46:53;;;;;;;8.55;5.50;;;6.50;67.80;;;0.11;100.00;94366.41;4935478;29;20023;-54
2023/12/02 08:49:20;;;;;;;9.27;5.88;;;6.50;67.70;;;0.15;100.00;94378.00;4945741;28;20054;-54
2023/12/02 08:51:46;;;;;;;10.77;6.45;;;6.60;67.50;;;0.23;100.00;94375.03;4940637;28;20022;-50
2023/12/02 08:54:13;;;;;;;12.45;6.00;;;6.70;67.40;;;0.25;100.00;94382.66;4941799;28;20477;-50
2023/12/02 08:56:39;;;;;;;8.65;5.20;;;6.70;67.20;;;0.18;100.00;94385.41;4944634;28;20141;-52
2023/12/02 08:59:05;;;;;;;7.22;4.85;;;6.80;66.90;;;0.14;100.00;94379.03;4943236;28;20026;-50
2023/12/02 09:01:31;;;;;;;7.95;5.15;;;6.80;66.80;;;0.20;100.00;94385.97;4943970;28;20038;-51
2023/12/02 09:03:57;;;;;;;6.78;4.90;;;6.80;66.60;;;0.14;100.00;94386.09;4942573;28;20027;-51
2023/12/02 09:06:23;;;;;;;9.55;5.35;;;6.80;66.60;;;0.17;100.00;94396.13;4937845;28;20023;-51
2023/12/02 09:08:49;;;;;;;10.23;5.90;;;6.80;66.40;;;0.17;100.00;94394.28;4932578;28;20057;-51
2023/12/02 09:11:15;;;;;;;8.05;5.43;;;6.80;66.30;;;0.25;100.00;94397.59;4942752;28;20086;-51
2023/12/02 09:13:49;;;;;;;8.48;5.75;;;6.90;66.30;;;0.30;100.00;94401.13;4943424;28;20034;-52
2023/12/02 09:16:31;;;;;;;61.60;7.68;;;6.90;66.30;;;0.30;100.00;94408.97;4942234;28;20019;-49
2023/12/02 09:18:57;;;;;;;8.55;5.60;;;7.00;66.30;;;0.29;100.00;94412.63;4929628;28;20071;-50
2023/12/02 09:21:42;;;;;;;11.13;5.72;;;7.00;66.20;;;0.25;100.00;94415.91;4938425;28;20529;-50
2023/12/02 09:24:33;;;;;;;7.07;5.25;;;7.00;66.00;;;0.26;100.00;94415.72;4934376;28;20118;-51
2023/12/02 09:26:59;;;;;;;8.45;5.38;;;7.00;65.90;;;0.31;100.00;94422.88;4931024;28;20544;-52
2023/12/02 09:29:37;;;;;;;8.82;5.75;;;7.00;65.90;;;0.33;100.00;94431.31;4930173;28;20035;-52
2023/12/02 09:32:46;;;;;;;9.75;5.90;;;7.10;65.70;;;0.30;100.00;94435.16;4940069;28;20088;-54
2023/12/02 09:35:12;;;;;;;10.30;5.05;;;7.10;65.50;;;0.29;100.00;94441.44;4933246;28;20051;-53
2023/12/02 09:37:57;;;;;;;9.43;5.50;;;7.10;65.60;;;0.38;100.00;94449.75;4943471;28;20031;-52
2023/12/02 09:40:28;;;;;;;8.10;5.35;;;7.20;65.40;;;0.43;100.00;94455.88;4940669;28;20030;-50
2023/12/02 09:43:19;;;;;;;7.20;5.43;;;7.20;65.40;;;0.53;100.00;94454.53;4940435;28;20027;-51
2023/12/02 09:46:22;;;;;;;7.65;5.43;;;7.30;65.30;;;0.57;100.00;94468.78;4939899;28;20035;-51
2023/12/02 09:49:19;;;;;;;9.35;5.45;;;7.50;65.20;;;0.56;100.00;94475.03;4935818;28;20022;-50
2023/12/02 09:51:57;;;;;;;7.32;4.57;;;7.50;65.10;;;0.49;100.00;94474.34;4931993;28;20031;-53
2023/12/02 09:54:52;;;;;;;14.98;5.75;;;7.50;65.00;;;0.54;100.00;94483.13;4944301;28;20031;-50
2023/12/02 09:57:47;;;;;;;6.97;4.82;;;7.50;64.70;;;0.53;100.00;94478.09;4942706;28;20506;-53
2023/12/02 10:00:48;;;;;;;6.53;4.55;;;7.40;64.60;;;0.52;100.00;94484.38;4940145;28;20035;-50
2023/12/02 10:03:50;;;;;;;7.80;5.00;;;7.40;64.70;;;0.51;100.00;94490.66;4942664;28;20031;-54
2023/12/02 10:06:55;;;;;;;7.43;4.88;;;7.40;64.70;;;0.50;100.00;94494.28;4938769;28;20050;-50
2023/12/02 10:09:41;;;;;;;6.97;4.78;;;7.30;64.80;;;0.40;100.00;94495.66;4943919;28;20237;-48
2023/12/02 10:12:46;;;;;;;7.82;5.38;;;7.30;64.90;;;0.49;100.00;94501.34;4929325;28;20110;-51
2023/12/02 10:15:16;;;;;;;7.95;4.90;;;7.30;65.70;;;0.48;100.00;94502.38;4934532;28;20027;-49
2023/12/02 10:17:59;;;;;;;8.15;4.55;;;7.20;64.90;;;0.53;100.00;94507.72;4940223;28;20031;-51
2023/12/02 10:20:28;;;;;;;8.07;4.97;;;7.20;64.80;;;0.57;100.00;94516.75;4939639;28;20077;-56
2023/12/02 10:23:36;;;;;;;7.32;5.10;;;7.20;64.90;;;0.49;100.00;94514.44;4935400;28;20034;-50